createdAt,value
2022-09-04T00:00:18.871Z,24.53
2022-09-04T00:03:08.493Z,24.49
2022-09-04T00:05:48.603Z,24.46
2022-09-04T00:08:48.064Z,24.43
2022-09-04T00:11:32.853Z,24.39
2022-09-04T00:14:11.539Z,24.36
2022-09-04T00:16:51.069Z,24.31
2022-09-04T00:19:32.144Z,24.32
2022-09-04T00:22:20.512Z,24.30
2022-09-04T00:25:00.295Z,24.26
2022-09-04T00:27:44.174Z,24.22
2022-09-04T00:30:21.803Z,24.18
2022-09-04T00:33:02.401Z,24.15
2022-09-04T00:35:39.401Z,24.11
2022-09-04T00:38:17.859Z,24.10
2022-09-04T00:41:02.964Z,24.09
2022-09-04T00:44:13.502Z,24.02
2022-09-04T00:47:08.257Z,24.01
2022-09-04T00:49:57.388Z,23.97
2022-09-04T00:52:46.816Z,23.96
2022-09-04T00:55:39.911Z,23.91
2022-09-04T00:58:38.442Z,23.85
2022-09-04T01:01:17.515Z,23.87
2022-09-04T01:04:22.678Z,23.84
2022-09-04T01:07:24.652Z,23.84
2022-09-04T01:10:20.961Z,23.80
2022-09-04T01:13:01.094Z,23.79
2022-09-04T01:15:41.196Z,23.78
2022-09-04T01:18:19.627Z,23.73
2022-09-04T01:21:17.662Z,23.73
2022-09-04T01:24:19.696Z,23.69
2022-09-04T01:27:01.999Z,23.68
2022-09-04T01:29:47.796Z,23.62
2022-09-04T01:32:33.786Z,23.59
2022-09-04T01:35:16.900Z,23.58
2022-09-04T01:37:54.814Z,23.55
2022-09-04T01:40:36.863Z,23.52
2022-09-04T01:46:15.823Z,23.42
2022-09-04T01:48:53.042Z,23.41
2022-09-04T01:51:35.184Z,23.41
2022-09-04T01:54:19.814Z,23.40
2022-09-04T01:57:07.827Z,23.34
2022-09-04T01:59:54.031Z,23.35
2022-09-04T02:02:33.044Z,23.37
2022-09-04T02:05:15.271Z,23.35
2022-09-04T02:07:50.711Z,23.30
2022-09-04T02:10:31.389Z,23.31
2022-09-04T02:13:15.965Z,23.27
2022-09-04T02:16:00.757Z,23.23
2022-09-04T02:18:45.508Z,23.17
2022-09-04T02:21:25.388Z,23.22
2022-09-04T02:24:09.230Z,23.22
2022-09-04T02:26:48.518Z,23.19
2022-09-04T02:29:29.108Z,23.19
2022-09-04T02:32:18.603Z,23.14
2022-09-04T02:35:00.316Z,23.13
2022-09-04T02:37:43.175Z,23.11
2022-09-04T02:40:21.512Z,23.06
2022-09-04T02:43:08.825Z,23.07
2022-09-04T02:45:46.955Z,23.04
2022-09-04T02:48:31.503Z,23.04
2022-09-04T02:51:18.430Z,22.98
2022-09-04T02:54:00.410Z,22.96
2022-09-04T02:56:44.310Z,22.92
2022-09-04T02:59:36.185Z,22.88
2022-09-04T03:02:19.769Z,22.87
2022-09-04T03:05:02.083Z,22.86
2022-09-04T03:07:37.687Z,22.87
2022-09-04T03:10:14.210Z,22.86
2022-09-04T03:12:51.461Z,22.85
2022-09-04T03:15:30.314Z,22.81
2022-09-04T03:18:08.715Z,22.77
2022-09-04T03:20:49.180Z,22.71
2022-09-04T03:23:25.762Z,22.67
2022-09-04T03:26:17.305Z,22.67
2022-09-04T03:29:02.094Z,22.67
2022-09-04T03:31:41.650Z,22.65
2022-09-04T03:34:37.132Z,22.61
2022-09-04T03:37:32.142Z,22.63
2022-09-04T03:40:15.247Z,22.58
2022-09-04T03:43:04.905Z,22.55
2022-09-04T03:45:46.747Z,22.57
2022-09-04T03:48:31.284Z,22.50
2022-09-04T03:51:14.411Z,22.49
2022-09-04T03:53:56.335Z,22.49
2022-09-04T03:56:52.132Z,22.44
2022-09-04T03:59:38.288Z,22.44
2022-09-04T04:02:24.220Z,22.42
2022-09-04T04:05:26.463Z,22.41
2022-09-04T04:08:30.507Z,22.37
2022-09-04T04:11:25.079Z,22.32
2022-09-04T04:14:25.495Z,22.29
2022-09-04T04:17:12.609Z,22.35
2022-09-04T04:20:02.631Z,22.27
2022-09-04T04:22:51.467Z,22.23
2022-09-04T04:25:38.721Z,22.21
2022-09-04T04:28:25.607Z,22.17
2022-09-04T04:31:11.112Z,22.18
2022-09-04T04:33:56.636Z,22.17
2022-09-04T04:36:37.794Z,22.13
2022-09-04T04:39:19.543Z,22.09
2022-09-04T04:42:17.353Z,22.09
2022-09-04T04:45:31.855Z,22.05
2022-09-04T04:48:37.299Z,22.03
2022-09-04T04:51:31.944Z,22.03
2022-09-04T04:54:22.322Z,22.06
2022-09-04T04:57:02.069Z,22.09
2022-09-04T04:59:44.723Z,22.03
2022-09-04T05:02:29.928Z,22.00
2022-09-04T05:05:13.417Z,22.00
2022-09-04T05:07:53.188Z,22.00
2022-09-04T05:10:33.138Z,21.96
2022-09-04T05:13:16.516Z,21.91
2022-09-04T05:16:08.892Z,21.91
2022-09-04T05:18:50.196Z,21.92
2022-09-04T05:21:30.037Z,21.90
2022-09-04T05:24:09.510Z,21.89
2022-09-04T05:26:47.450Z,21.85
2022-09-04T05:29:30.529Z,21.87
2022-09-04T05:32:17.609Z,21.86
2022-09-04T05:35:08.084Z,21.86
2022-09-04T05:37:52.044Z,21.86
2022-09-04T05:40:30.913Z,21.87
2022-09-04T05:43:15.228Z,21.79
2022-09-04T05:45:58.576Z,21.78
2022-09-04T05:48:42.406Z,21.76
2022-09-04T05:51:51.482Z,21.78
2022-09-04T05:54:51.041Z,21.79
2022-09-04T05:57:36.936Z,21.79
2022-09-04T06:00:13.023Z,21.83
2022-09-04T06:03:28.941Z,21.82
2022-09-04T06:06:11.770Z,21.80
2022-09-04T06:09:07.686Z,21.88
2022-09-04T06:11:58.691Z,21.85
2022-09-04T06:14:48.432Z,21.89
2022-09-04T06:17:34.828Z,21.93
2022-09-04T06:20:40.086Z,21.96
2022-09-04T06:23:27.750Z,21.93
2022-09-04T06:26:44.909Z,21.95
2022-09-04T06:29:42.751Z,21.92
2022-09-04T06:32:36.029Z,21.94
2022-09-04T06:35:19.822Z,21.96
2022-09-04T06:38:07.298Z,21.97
2022-09-04T06:40:53.566Z,22.03
2022-09-04T06:43:38.009Z,22.07
2022-09-04T06:46:20.197Z,22.07
2022-09-04T06:49:04.057Z,22.18
2022-09-04T06:51:57.684Z,22.20
2022-09-04T06:54:37.240Z,22.21
2022-09-04T06:57:28.307Z,22.20
2022-09-04T07:00:07.228Z,22.32
2022-09-04T07:03:03.274Z,22.28
2022-09-04T07:05:46.019Z,22.31
2022-09-04T07:08:33.520Z,22.34
2022-09-04T07:11:19.411Z,22.37
2022-09-04T07:14:19.994Z,22.44
2022-09-04T07:17:07.722Z,22.50
2022-09-04T07:20:03.681Z,22.49
2022-09-04T07:22:59.014Z,22.57
2022-09-04T07:25:44.252Z,22.54
2022-09-04T07:28:35.843Z,22.64
2022-09-04T07:31:13.180Z,22.77
2022-09-04T07:33:57.280Z,22.83
2022-09-04T07:36:37.486Z,22.81
2022-09-04T07:39:18.801Z,22.85
2022-09-04T07:42:01.955Z,22.98
2022-09-04T07:44:42.552Z,23.00
2022-09-04T07:47:20.602Z,23.05
2022-09-04T07:50:02.062Z,23.12
2022-09-04T07:52:54.651Z,23.27
2022-09-04T07:55:39.485Z,23.42
2022-09-04T07:58:28.818Z,23.50
2022-09-04T08:01:18.458Z,23.58
2022-09-04T08:04:09.733Z,23.71
2022-09-04T08:06:49.694Z,23.90
2022-09-04T08:09:47.879Z,23.98
2022-09-04T08:12:38.503Z,24.29
2022-09-04T08:15:19.820Z,24.21
2022-09-04T08:18:08.390Z,24.39
2022-09-04T08:20:45.870Z,24.57
2022-09-04T08:23:36.125Z,25.01
2022-09-04T08:26:19.071Z,24.89
2022-09-04T08:29:05.874Z,25.11
2022-09-04T08:31:44.440Z,25.38
2022-09-04T08:34:46.143Z,25.44
2022-09-04T08:37:26.601Z,25.22
2022-09-04T08:40:24.379Z,25.44
2022-09-04T08:43:26.203Z,25.40
2022-09-04T08:46:40.653Z,25.36
2022-09-04T08:49:45.102Z,26.01
2022-09-04T08:52:54.063Z,26.17
2022-09-04T08:55:40.427Z,26.30
2022-09-04T08:58:49.661Z,26.33
2022-09-04T09:01:46.652Z,26.33
2022-09-04T09:04:47.691Z,26.61
2022-09-04T09:07:49.148Z,26.45
2022-09-04T09:10:47.271Z,26.61
2022-09-04T09:13:50.784Z,26.88
2022-09-04T09:16:24.117Z,27.11
2022-09-04T09:19:12.257Z,26.97
2022-09-04T09:21:49.255Z,27.19
2022-09-04T09:24:55.539Z,27.16
2022-09-04T09:28:06.806Z,27.46
2022-09-04T09:31:05.273Z,27.66
2022-09-04T09:34:11.273Z,27.76
2022-09-04T09:37:14.318Z,28.18
2022-09-04T09:40:16.737Z,27.46
2022-09-04T09:43:26.831Z,27.31
2022-09-04T09:46:26.770Z,27.63
2022-09-04T09:49:51.861Z,28.45
2022-09-04T09:53:05.508Z,28.51
2022-09-04T09:56:04.694Z,28.75
2022-09-04T09:59:04.934Z,28.43
2022-09-04T10:02:00.438Z,28.19
2022-09-04T10:04:58.910Z,28.34
2022-09-04T10:07:59.062Z,28.95
2022-09-04T10:10:54.524Z,29.27
2022-09-04T10:13:41.990Z,29.11
2022-09-04T10:17:00.593Z,29.47
2022-09-04T10:20:05.700Z,29.61
2022-09-04T10:22:57.464Z,29.56
2022-09-04T10:26:01.191Z,29.52
2022-09-04T10:29:11.972Z,30.21
2022-09-04T10:32:03.280Z,30.02
2022-09-04T10:34:54.357Z,29.51
2022-09-04T10:37:49.350Z,29.02
2022-09-04T10:40:39.582Z,30.08
2022-09-04T10:43:26.828Z,30.23
2022-09-04T10:46:09.713Z,29.81
2022-09-04T10:49:11.383Z,30.13
2022-09-04T10:52:12.455Z,30.03
2022-09-04T10:55:11.722Z,30.84
2022-09-04T10:58:08.709Z,30.48
2022-09-04T11:00:55.894Z,30.37
2022-09-04T11:03:44.886Z,30.31
2022-09-04T11:07:03.022Z,30.88
2022-09-04T11:09:51.806Z,30.71
2022-09-04T11:12:44.136Z,31.27
2022-09-04T11:15:43.754Z,31.48
2022-09-04T11:19:10.320Z,31.59
2022-09-04T11:25:12.458Z,31.56
2022-09-04T11:28:12.976Z,31.46
2022-09-04T11:31:02.805Z,31.32
2022-09-04T11:34:16.254Z,31.59
2022-09-04T11:37:15.417Z,31.57
2022-09-04T11:40:10.079Z,31.81
2022-09-04T11:42:58.806Z,31.34
2022-09-04T11:46:18.996Z,31.18
2022-09-04T11:49:13.391Z,31.74
2022-09-04T11:52:04.335Z,31.19
2022-09-04T11:55:01.120Z,32.16
2022-09-04T11:57:48.619Z,32.01
2022-09-04T12:00:22.210Z,31.51
2022-09-04T12:03:36.514Z,32.82
2022-09-04T12:06:35.027Z,32.62
2022-09-04T12:09:29.646Z,32.88
2022-09-04T12:12:23.746Z,32.28
2022-09-04T12:15:31.118Z,31.96
2022-09-04T12:18:25.660Z,32.53
2022-09-04T12:21:41.088Z,32.79
2022-09-04T12:24:42.013Z,32.51
2022-09-04T12:27:37.189Z,32.75
2022-09-04T12:30:20.293Z,33.13
2022-09-04T12:33:35.452Z,33.13
2022-09-04T12:36:28.230Z,32.53
2022-09-04T12:39:35.748Z,32.91
2022-09-04T12:42:15.204Z,33.22
2022-09-04T12:45:00.312Z,33.44
2022-09-04T12:47:46.350Z,33.48
2022-09-04T12:50:30.603Z,33.01
2022-09-04T12:53:30.736Z,33.06
2022-09-04T12:56:11.616Z,32.44
2022-09-04T12:59:07.180Z,33.03
2022-09-04T13:02:01.560Z,33.45
2022-09-04T13:04:42.634Z,33.31
2022-09-04T13:07:32.180Z,33.58
2022-09-04T13:10:17.872Z,33.64
2022-09-04T13:13:04.825Z,33.64
2022-09-04T13:15:50.131Z,33.50
2022-09-04T13:18:44.893Z,33.26
2022-09-04T13:21:31.117Z,33.78
2022-09-04T13:24:19.905Z,33.83
2022-09-04T13:27:07.076Z,33.76
2022-09-04T13:29:51.474Z,33.88
2022-09-04T13:32:41.762Z,33.84
2022-09-04T13:35:28.141Z,33.94
2022-09-04T13:38:36.120Z,34.02
2022-09-04T13:41:33.708Z,33.84
2022-09-04T13:44:51.057Z,33.73
2022-09-04T13:47:32.096Z,33.48
2022-09-04T13:50:12.078Z,33.66
2022-09-04T13:52:53.486Z,33.52
2022-09-04T13:55:30.724Z,33.63
2022-09-04T13:58:10.559Z,34.01
2022-09-04T14:00:49.375Z,34.05
2022-09-04T14:03:33.469Z,33.97
2022-09-04T14:06:11.326Z,34.12
2022-09-04T14:09:04.932Z,34.25
2022-09-04T14:11:57.953Z,34.22
2022-09-04T14:14:59.620Z,34.18
2022-09-04T14:17:38.708Z,34.30
2022-09-04T14:20:20.674Z,34.21
2022-09-04T14:23:06.582Z,33.97
2022-09-04T14:25:51.184Z,34.09
2022-09-04T14:28:35.485Z,34.01
2022-09-04T14:31:18.635Z,34.49
2022-09-04T14:34:02.086Z,34.40
2022-09-04T14:36:42.332Z,34.60
2022-09-04T14:39:21.368Z,34.54
2022-09-04T14:42:22.217Z,34.31
2022-09-04T14:45:13.233Z,34.27
2022-09-04T14:47:52.028Z,34.29
2022-09-04T14:50:30.323Z,33.75
2022-09-04T14:53:06.685Z,33.60
2022-09-04T14:55:43.108Z,34.18
2022-09-04T14:58:25.497Z,34.02
2022-09-04T15:01:01.218Z,34.24
2022-09-04T15:03:42.045Z,34.25
2022-09-04T15:06:22.617Z,33.85
2022-09-04T15:08:58.936Z,33.63
2022-09-04T15:11:38.159Z,32.85
2022-09-04T15:14:26.212Z,33.26
2022-09-04T15:17:03.427Z,33.38
2022-09-04T15:19:46.499Z,33.42
2022-09-04T15:22:25.300Z,33.33
2022-09-04T15:25:05.388Z,33.19
2022-09-04T15:27:47.038Z,33.40
2022-09-04T15:30:23.151Z,33.26
2022-09-04T15:33:23.662Z,33.26
2022-09-04T15:36:07.727Z,33.23
2022-09-04T15:38:50.617Z,32.98
2022-09-04T15:41:37.282Z,32.98
2022-09-04T15:44:18.650Z,33.06
2022-09-04T15:47:02.649Z,33.03
2022-09-04T15:49:47.116Z,32.77
2022-09-04T15:52:30.757Z,32.80
2022-09-04T15:55:10.374Z,32.95
2022-09-04T15:57:51.925Z,32.76
2022-09-04T16:00:32.034Z,32.69
2022-09-04T16:03:15.120Z,32.81
2022-09-04T16:05:51.829Z,32.58
2022-09-04T16:08:30.111Z,32.51
2022-09-04T16:11:07.735Z,32.51
2022-09-04T16:13:48.432Z,32.33
2022-09-04T16:16:26.115Z,31.34
2022-09-04T16:19:12.231Z,31.28
2022-09-04T16:21:55.242Z,31.75
2022-09-04T16:24:40.348Z,31.73
2022-09-04T16:27:17.496Z,31.89
2022-09-04T16:29:57.580Z,31.69
2022-09-04T16:32:34.148Z,31.11
2022-09-04T16:35:18.263Z,31.12
2022-09-04T16:37:57.457Z,30.72
2022-09-04T16:40:34.119Z,30.99
2022-09-04T16:43:19.470Z,30.84
2022-09-04T16:45:58.992Z,30.35
2022-09-04T16:48:36.079Z,30.88
2022-09-04T16:51:39.224Z,30.89
2022-09-04T16:54:17.513Z,30.93
2022-09-04T16:56:53.382Z,30.70
2022-09-04T16:59:49.525Z,30.60
2022-09-04T17:02:30.753Z,30.47
2022-09-04T17:05:18.465Z,30.33
2022-09-04T17:07:59.173Z,30.10
2022-09-04T17:10:36.844Z,30.13
2022-09-04T17:13:16.497Z,29.84
2022-09-04T17:15:58.366Z,29.78
2022-09-04T17:18:32.580Z,29.92
2022-09-04T17:25:35.426Z,29.94
2022-09-04T17:28:56.418Z,29.89
2022-09-04T17:29:18.570Z,29.84
2022-09-04T17:30:37.072Z,29.89
2022-09-04T17:39:52.921Z,29.92
2022-09-04T17:40:40.031Z,29.78
2022-09-04T17:40:56.730Z,29.88
2022-09-04T17:42:19.870Z,29.54
2022-09-04T17:45:03.368Z,29.38
2022-09-04T17:47:42.812Z,29.27
2022-09-04T17:50:18.199Z,29.07
2022-09-04T17:53:00.750Z,28.94
2022-09-04T17:55:39.199Z,28.89
2022-09-04T17:58:35.290Z,28.84
2022-09-04T18:01:17.032Z,28.80
2022-09-04T18:04:22.009Z,28.76
2022-09-04T18:07:22.016Z,28.80
2022-09-04T18:10:04.182Z,28.96
2022-09-04T18:12:43.609Z,28.94
2022-09-04T18:15:33.080Z,28.93
2022-09-04T18:18:14.774Z,28.96
2022-09-04T18:20:53.024Z,28.84
2022-09-04T18:23:51.109Z,28.83
2022-09-04T18:26:40.076Z,28.82
2022-09-04T18:30:48.335Z,28.82
2022-09-04T18:37:18.587Z,28.64
2022-09-04T18:37:20.785Z,28.60
2022-09-04T18:39:09.060Z,28.61
2022-09-04T18:46:41.324Z,28.50
2022-09-04T18:50:33.083Z,28.46
2022-09-04T18:50:34.150Z,28.37
2022-09-04T18:51:20.846Z,28.28
2022-09-04T18:54:00.585Z,28.33
2022-09-04T18:56:37.662Z,28.30
2022-09-04T18:59:16.953Z,28.13
2022-09-04T19:01:58.137Z,28.11
2022-09-04T19:04:44.575Z,28.12
2022-09-04T19:07:31.849Z,28.14
2022-09-04T19:10:12.135Z,28.12
2022-09-04T19:12:57.849Z,27.85
2022-09-04T19:15:37.798Z,27.83
2022-09-04T19:18:20.430Z,27.88
2022-09-04T19:21:05.152Z,27.83
2022-09-04T19:23:43.984Z,27.76
2022-09-04T19:26:25.948Z,27.59
2022-09-04T19:29:08.182Z,27.50
2022-09-04T19:31:49.368Z,27.58
2022-09-04T19:34:33.560Z,27.57
2022-09-04T19:37:54.386Z,27.52
2022-09-04T19:46:04.738Z,27.43
2022-09-04T19:46:05.052Z,27.35
2022-09-04T19:51:19.457Z,27.27
2022-09-04T19:53:31.249Z,27.19
2022-09-04T19:55:23.746Z,27.17
2022-09-04T19:58:07.611Z,27.14
2022-09-04T20:00:49.130Z,27.05
2022-09-04T20:03:29.507Z,27.00
2022-09-04T20:06:20.407Z,26.94
2022-09-04T20:09:03.308Z,26.93
2022-09-04T20:11:40.890Z,26.90
2022-09-04T20:14:22.814Z,26.78
2022-09-04T20:17:08.860Z,26.66
2022-09-04T20:19:48.760Z,26.63
2022-09-04T20:22:37.014Z,26.68
2022-09-04T20:25:28.276Z,26.60
2022-09-04T20:28:15.188Z,26.51
2022-09-04T20:31:04.907Z,26.45
2022-09-04T20:34:04.718Z,26.47
2022-09-04T20:36:49.158Z,26.44
2022-09-04T20:39:28.078Z,26.35
2022-09-04T20:42:07.192Z,26.31
2022-09-04T20:47:27.916Z,26.29
2022-09-04T20:52:45.208Z,26.23
2022-09-04T20:52:51.378Z,26.19
2022-09-04T20:53:59.652Z,26.15
2022-09-04T20:58:13.928Z,26.10
2022-09-04T21:03:11.577Z,26.08
2022-09-04T21:03:23.114Z,26.02
2022-09-04T21:06:10.363Z,25.97
2022-09-04T21:08:49.961Z,25.92
2022-09-04T21:11:40.653Z,25.88
2022-09-04T21:14:20.972Z,25.84
2022-09-04T21:17:33.888Z,25.82
2022-09-04T21:20:24.386Z,25.75
2022-09-04T21:23:21.773Z,25.73
2022-09-04T21:26:08.406Z,25.72
2022-09-04T21:29:17.750Z,25.66
2022-09-04T21:32:14.999Z,25.61
2022-09-04T21:35:07.163Z,25.58
2022-09-04T21:37:47.816Z,25.54
2022-09-04T21:40:56.259Z,25.55
2022-09-04T21:43:48.186Z,25.45
2022-09-04T21:46:48.893Z,25.45
2022-09-04T21:49:46.000Z,25.42
2022-09-04T21:52:45.995Z,25.36
2022-09-04T22:00:25.407Z,25.31
2022-09-04T22:02:35.693Z,25.26
2022-09-04T22:02:40.285Z,25.20
2022-09-04T22:05:18.366Z,25.19
2022-09-04T22:13:34.299Z,25.15
2022-09-04T22:13:46.789Z,25.06
2022-09-04T22:14:17.345Z,25.07
2022-09-04T22:17:07.731Z,25.06
2022-09-04T22:20:20.527Z,25.03
2022-09-04T22:23:25.702Z,24.97
2022-09-04T22:26:23.790Z,24.93
2022-09-04T22:29:39.985Z,24.91
2022-09-04T22:32:38.292Z,24.88
2022-09-04T22:35:42.465Z,24.84
2022-09-04T22:38:37.082Z,24.78
2022-09-04T22:41:42.600Z,24.80
2022-09-04T22:44:27.129Z,24.79
2022-09-04T22:47:27.169Z,24.75
2022-09-04T22:50:48.770Z,24.71
2022-09-04T22:53:50.797Z,24.68
2022-09-04T22:56:46.565Z,24.67
2022-09-04T22:59:42.886Z,24.59
2022-09-04T23:03:07.247Z,24.57
2022-09-04T23:05:49.402Z,24.51
2022-09-04T23:13:50.284Z,24.45
2022-09-04T23:13:59.243Z,24.41
2022-09-04T23:15:08.427Z,24.40
2022-09-04T23:18:05.806Z,24.39
2022-09-04T23:26:35.159Z,24.33
2022-09-04T23:26:47.563Z,24.30
2022-09-04T23:27:29.342Z,24.25
2022-09-04T23:30:26.498Z,24.26
2022-09-04T23:33:32.109Z,24.18
2022-09-04T23:36:29.672Z,24.19
2022-09-04T23:39:28.064Z,24.12
2022-09-04T23:42:17.960Z,24.12
2022-09-04T23:45:20.037Z,24.06
2022-09-04T23:48:06.447Z,23.99
2022-09-04T23:50:50.388Z,24.05
2022-09-04T23:53:33.561Z,23.99
2022-09-04T23:56:11.508Z,24.02
2022-09-04T23:59:21.477Z,23.91
